M I D A S
Marine Information and Data Acquisition System
Tripno 1476 of the Zeeleeuw from 2008-02-19 07:49:17 to 2008-02-19 15:36:32
Back to CruiseResearch ActivitiesStationsMapUnderway DataData graphs

EquipmentUnitsComment
TimeDGPSUTC
LatitudeDGPSDM.mWGS84
LongitudeDGPSDM.mWGS84
HeadingGyrodeg 
SOGDGPSknotsSpeed over ground
COGDGPSdegCourse over ground
DepthEcho soundermeters200 kHz
Missing or incorrect values are displayed as -999
Navigation data collected by the RV Zeeleeuw from 2008-02-19 07:51:23 to 2008-02-19 15:38:05
Time Latitude Longitude Heading SOG COG Depth
2008-02-19 07:52:29 51°13.674 2°55.889 103.8 4.1 283 -999
2008-02-19 07:53:29 51°13.689 2°55.784 96.9 3.7 280 -999
2008-02-19 07:54:28 51°13.692 2°55.718 76.1 1.1 280 11.7
2008-02-19 07:55:28 51°13.708 2°55.72 27.6 2.7 11 13.2
2008-02-19 07:56:27 51°13.795 2°55.666 333 7.5 332 10.6
2008-02-19 07:57:26 51°13.91 2°55.578 336 7.2 336 11.2
2008-02-19 07:58:25 51°13.999 2°55.513 336.1 5.3 336 11.3
2008-02-19 07:59:26 51°14.076 2°55.455 333.5 5 333 11.4
2008-02-19 08:00:26 51°14.171 2°55.368 328.5 8.3 326 11.4
2008-02-19 08:01:25 51°14.286 2°55.201 312 10.2 310 10.4
2008-02-19 08:02:25 51°14.386 2°54.964 299.8 11.3 298 10.3
2008-02-19 08:03:25 51°14.482 2°54.694 306.3 12.1 305 10.6
2008-02-19 08:04:25 51°14.6 2°54.426 306.2 12.3 301 10.4
2008-02-19 08:05:25 51°14.664 2°54.112 287.8 12.5 289 10.8
2008-02-19 08:06:25 51°14.726 2°53.893 309.8 5.9 307 10.9
2008-02-19 08:07:25 51°14.774 2°53.822 337.6 3 325 10.3
2008-02-19 08:08:25 51°14.806 2°53.787 347 1.9 326 10.1
2008-02-19 08:09:25 51°14.827 2°53.763 352.1 1.3 325 10.1
2008-02-19 08:10:27 51°14.807 2°53.747 348.2 2.9 185 -999
2008-02-19 08:11:29 51°14.752 2°53.752 335.4 1.9 187 10.5
2008-02-19 08:12:27 51°14.774 2°53.748 22.2 3.3 27 10.5
2008-02-19 08:13:26 51°14.799 2°53.814 70.3 2.5 72 10.2
2008-02-19 08:14:26 51°14.805 2°53.862 68.7 1.3 73 10.2
2008-02-19 08:15:25 51°14.806 2°53.868 48.5 0.1 226 10.1
2008-02-19 08:16:25 51°14.811 2°53.861 26.8 0.5 327 10.1
2008-02-19 08:17:25 51°14.818 2°53.853 29.2 0.4 334 10.2
2008-02-19 08:18:25 51°14.823 2°53.846 36.2 0.3 310 10.2
2008-02-19 08:19:25 51°14.826 2°53.838 39.7 0.3 287 10.1
2008-02-19 08:20:25 51°14.828 2°53.83 43.7 0.2 309 10.2
2008-02-19 08:21:25 51°14.831 2°53.827 53.7 0.1 344 10.3
2008-02-19 08:22:25 51°14.833 2°53.828 65 0.2 101 10.2
2008-02-19 08:23:25 51°14.833 2°53.832 74.6 0.2 102 10.2
2008-02-19 08:24:25 51°14.834 2°53.856 80.9 2.4 85 10.2
2008-02-19 08:25:25 51°14.867 2°54.005 64.5 7.6 65 10.1
2008-02-19 08:26:25 51°14.926 2°54.139 47 5.7 47 9.5
2008-02-19 08:27:25 51°14.988 2°54.247 48 5.2 48 9.3
2008-02-19 08:28:25 51°15.039 2°54.338 49.5 4.3 49 9.1
2008-02-19 08:29:24 51°15.076 2°54.417 55.8 3.2 54 9.1
2008-02-19 08:30:25 51°15.101 2°54.472 56.4 2 56 9.1
2008-02-19 08:31:25 51°15.112 2°54.501 63.8 0.8 54 9.1
2008-02-19 08:32:25 51°15.115 2°54.512 61.6 0.3 62 9.2
2008-02-19 08:33:26 51°15.118 2°54.516 54.8 0.1 53 9.2
2008-02-19 08:34:25 51°15.121 2°54.515 48.1 0.1 329 9.2
2008-02-19 08:35:25 51°15.123 2°54.509 42.5 0.2 307 9.2
2008-02-19 08:36:25 51°15.125 2°54.502 38.9 0.3 300 9.2
2008-02-19 08:37:25 51°15.13 2°54.5 38.5 0.4 3 9.3
2008-02-19 08:38:25 51°15.136 2°54.502 45.9 0.4 33 9.4
2008-02-19 08:39:25 51°15.142 2°54.506 51.9 0.3 5 9.2
2008-02-19 08:40:25 51°15.146 2°54.507 54.7 0.2 1 9.3
2008-02-19 08:41:25 51°15.169 2°54.559 55.9 5.9 57 9.3
2008-02-19 08:42:25 51°15.262 2°54.744 50 10.8 52 9.3
2008-02-19 08:43:25 51°15.382 2°54.99 53.5 12 53 9.1
2008-02-19 08:44:25 51°15.512 2°55.234 51.8 12 52 9.1
2008-02-19 08:45:25 51°15.63 2°55.47 51.6 9.9 51 9.3
2008-02-19 08:46:25 51°15.719 2°55.646 52 6.4 52 9.6
2008-02-19 08:47:25 51°15.754 2°55.743 75.1 2.3 76 9.6
2008-02-19 08:48:25 51°15.76 2°55.802 63.9 2.6 61 9.6
2008-02-19 08:49:25 51°15.795 2°55.835 12.8 2.7 12 9.7
2008-02-19 08:50:25 51°15.808 2°55.834 16 0.2 294 9.8
2008-02-19 08:51:25 51°15.81 2°55.828 359.4 0.3 279 9.8
2008-02-19 08:52:25 51°15.811 2°55.82 341.3 0.4 284 9.8
2008-02-19 08:53:25 51°15.811 2°55.81 333.5 0.4 272 9.9
2008-02-19 08:54:25 51°15.812 2°55.799 334.8 0.4 285 9.9
2008-02-19 08:55:25 51°15.815 2°55.789 340 0.4 316 9.9
2008-02-19 08:56:25 51°15.82 2°55.78 348.4 0.5 320 10
2008-02-19 08:57:25 51°15.827 2°55.775 358 0.5 336 10
2008-02-19 08:58:25 51°15.834 2°55.771 7.1 0.4 349 10.1
2008-02-19 08:59:25 51°15.841 2°55.77 15.9 0.4 348 10.2
2008-02-19 09:00:25 51°15.851 2°55.772 23.1 1 19 10.3
2008-02-19 09:01:25 51°15.87 2°55.806 65.3 2.4 68 10.3
2008-02-19 09:02:25 51°15.87 2°55.888 93.4 3.8 91 10.2
2008-02-19 09:03:25 51°15.882 2°55.99 67.2 3.6 71 10.2
2008-02-19 09:04:25 51°15.9 2°56.052 66.5 1.6 67 10.1
2008-02-19 09:05:25 51°15.904 2°56.079 84.7 0.8 81 10.1
2008-02-19 09:06:25 51°15.905 2°56.099 97.1 0.7 98 10.2
2008-02-19 09:07:25 51°15.902 2°56.116 103.1 0.7 82 10.3
2008-02-19 09:08:25 51°15.9 2°56.131 100.4 0.5 94 10.1
2008-02-19 09:09:25 51°15.899 2°56.145 97.3 0.5 103 10.2
2008-02-19 09:10:25 51°15.897 2°56.158 95.9 0.5 107 10.1
2008-02-19 09:11:25 51°15.894 2°56.169 98.1 0.4 105 10.1
2008-02-19 09:12:25 51°15.892 2°56.179 100.8 0.4 120 10.1
2008-02-19 09:13:25 51°15.891 2°56.19 104.2 0.4 99 10.1
2008-02-19 09:14:26 51°15.888 2°56.198 110 0.4 100 10.1
2008-02-19 09:15:25 51°15.887 2°56.207 116.9 0.4 98 10.1
2008-02-19 09:16:25 51°15.886 2°56.216 123.6 0.4 103 10.1
2008-02-19 09:17:25 51°15.882 2°56.231 126.3 1.1 112 10.1
2008-02-19 09:18:25 51°15.882 2°56.294 73.4 3.5 65 10
2008-02-19 09:19:25 51°15.939 2°56.338 348.6 4.2 351 10.3
2008-02-19 09:20:25 51°15.969 2°56.26 260.7 3.6 256 10.5
2008-02-19 09:21:25 51°15.897 2°56.144 225.6 9.3 223 10.3
2008-02-19 09:22:25 51°15.776 2°55.943 228.2 11.2 227 10
2008-02-19 09:23:25 51°15.651 2°55.712 230.2 11.6 230 9.9
2008-02-19 09:24:25 51°15.529 2°55.473 231.4 11.6 232 9.7
2008-02-19 09:25:24 51°15.404 2°55.244 230.2 11.7 229 9.8
2008-02-19 09:26:25 51°15.287 2°54.993 235.5 11.6 232 9.8
2008-02-19 09:27:25 51°15.182 2°54.751 234 10.4 234 10
2008-02-19 09:28:25 51°15.096 2°54.555 235.2 7.8 235 10.3
2008-02-19 09:29:25 51°15.034 2°54.42 234 4.8 234 10.6
2008-02-19 09:30:26 51°15.001 2°54.336 243.5 3 245 10.5
2008-02-19 09:31:25 51°14.99 2°54.275 249.7 2 254 10.8
2008-02-19 09:32:25 51°14.976 2°54.24 230 1.4 225 10.8
2008-02-19 09:33:25 51°14.962 2°54.221 222.4 0.9 225 10.8
2008-02-19 09:34:26 51°14.956 2°54.216 224.3 0.3 194 10.9
2008-02-19 09:35:25 51°14.953 2°54.216 215.4 0.2 165 11
2008-02-19 09:36:25 51°14.951 2°54.219 207.7 0.2 122 11
2008-02-19 09:37:26 51°14.95 2°54.229 200.8 0.4 97 11
2008-02-19 09:38:25 51°14.95 2°54.241 193 0.5 83 11
2008-02-19 09:39:25 51°14.953 2°54.256 186.9 0.6 73 11
2008-02-19 09:40:25 51°14.957 2°54.271 181.3 0.7 65 11
2008-02-19 09:41:26 51°14.962 2°54.287 178 0.6 58 11.1
2008-02-19 09:42:25 51°14.958 2°54.3 191.9 1.2 170 11.2
2008-02-19 09:43:25 51°14.939 2°54.266 251.8 2.5 258 11.1
2008-02-19 09:44:25 51°14.932 2°54.185 244.5 3.4 247 11.3
2008-02-19 09:45:26 51°14.911 2°54.109 247.3 2.5 248 11.4
2008-02-19 09:46:25 51°14.905 2°54.067 253.9 0.6 269 11.8
2008-02-19 09:47:25 51°14.91 2°54.054 265.2 0.6 318 11.7
2008-02-19 09:48:26 51°14.917 2°54.044 266.2 0.6 326 11.7
2008-02-19 09:49:25 51°14.924 2°54.036 261.1 0.5 334 11.9
2008-02-19 09:50:25 51°14.93 2°54.032 252.1 0.3 346 12
2008-02-19 09:51:25 51°14.934 2°54.032 242.7 0.2 27 12.4
2008-02-19 09:52:25 51°14.935 2°54.01 259 2.7 271 12
2008-02-19 09:53:25 51°14.994 2°53.958 349.9 5.8 6 12
2008-02-19 09:54:25 51°15.099 2°54.065 33.4 10 35 11.5
2008-02-19 09:55:25 51°15.267 2°54.25 33.5 13.5 35 11.6
2008-02-19 09:56:25 51°15.453 2°54.46 34.7 13.8 36 11.8
2008-02-19 09:57:25 51°15.638 2°54.672 35.1 13.7 36 12
2008-02-19 09:58:25 51°15.822 2°54.887 34.3 13.8 36 12.6
2008-02-19 09:59:25 51°16.008 2°55.103 34.7 13.9 36 12.6
2008-02-19 10:00:25 51°16.196 2°55.32 34.2 13.9 36 12.7
2008-02-19 10:01:25 51°16.345 2°55.503 37.3 7.9 38 12.9
2008-02-19 10:02:25 51°16.429 2°55.546 337.6 4.1 353 12.9
2008-02-19 10:03:25 51°16.461 2°55.496 262.4 2.3 269 13
2008-02-19 10:04:26 51°16.428 2°55.461 204.4 3 196 13
2008-02-19 10:05:25 51°16.397 2°55.399 243.6 3.4 245 13.1
2008-02-19 10:06:25 51°16.364 2°55.343 221.1 2.2 214 13
2008-02-19 10:07:25 51°16.347 2°55.316 237.5 1.1 232 13.1
2008-02-19 10:08:25 51°16.343 2°55.297 243 0.5 259 13.2
2008-02-19 10:09:25 51°16.342 2°55.29 235.8 0.1 201 13.3
2008-02-19 10:10:25 51°16.343 2°55.292 228.3 0.2 77 13.2
2008-02-19 10:11:26 51°16.343 2°55.302 221.5 0.5 93 13.2
2008-02-19 10:12:25 51°16.343 2°55.316 214 0.5 86 13.2
2008-02-19 10:13:25 51°16.346 2°55.334 207.9 0.8 76 13.2
2008-02-19 10:14:25 51°16.35 2°55.355 200.3 0.8 66 13.2
2008-02-19 10:15:26 51°16.356 2°55.378 194.4 0.9 68 13.1
2008-02-19 10:16:25 51°16.363 2°55.403 188.2 1.1 66 13.2
2008-02-19 10:17:25 51°16.368 2°55.429 189.4 0.9 79 13.2
2008-02-19 10:18:26 51°16.369 2°55.451 200.3 0.7 94 13.2
2008-02-19 10:19:25 51°16.367 2°55.466 217.1 0.3 147 13.1
2008-02-19 10:20:25 51°16.364 2°55.449 254.7 1.3 267 13.2
2008-02-19 10:21:25 51°16.363 2°55.413 248.2 1.3 266 13.2
2008-02-19 10:22:26 51°16.359 2°55.385 242.3 0.9 257 13.3
2008-02-19 10:23:25 51°16.347 2°55.35 237.1 3.1 237 13.3
2008-02-19 10:24:25 51°16.296 2°55.218 238.1 7.7 240 13.3
2008-02-19 10:25:25 51°16.204 2°54.999 233.6 10.9 232 13.3
2008-02-19 10:26:26 51°16.097 2°54.756 234.3 11.1 237 13.5
2008-02-19 10:27:26 51°15.983 2°54.527 228.8 10.9 230 13.5
2008-02-19 10:28:25 51°15.861 2°54.314 228.4 11.1 227 13.4
2008-02-19 10:29:25 51°15.737 2°54.097 226.9 11.2 227 13.3
2008-02-19 10:30:25 51°15.632 2°53.901 230.3 6.7 228 13.3
2008-02-19 10:31:26 51°15.583 2°53.838 218.4 2 206 13.4
2008-02-19 10:32:26 51°15.565 2°53.812 238.9 1.3 245 13.4
2008-02-19 10:33:25 51°15.559 2°53.77 246 2 254 13.3
2008-02-19 10:34:26 51°15.547 2°53.724 236.7 1.4 241 13.4
2008-02-19 10:35:26 51°15.543 2°53.717 226.9 0.1 227 13.4
2008-02-19 10:36:25 51°15.542 2°53.719 221.1 0.2 103 13.4
2008-02-19 10:37:25 51°15.542 2°53.727 216.9 0.3 83 13.3
2008-02-19 10:38:26 51°15.541 2°53.734 218.8 0.1 99 13.7
2008-02-19 10:39:25 51°15.539 2°53.734 226.7 0.2 227 13.7
2008-02-19 10:40:25 51°15.537 2°53.727 231.1 0.4 222 13.3
2008-02-19 10:41:26 51°15.532 2°53.719 227.2 0.4 229 13.3
2008-02-19 10:42:26 51°15.526 2°53.713 222.3 0.4 197 13.4
2008-02-19 10:43:26 51°15.517 2°53.71 218.5 0.6 196 13.6
2008-02-19 10:44:25 51°15.503 2°53.704 217.4 1.3 206 13.3
2008-02-19 10:45:26 51°15.475 2°53.657 239 3.6 243 13.3
2008-02-19 10:46:25 51°15.441 2°53.531 240.1 5 241 13.3
2008-02-19 10:47:25 51°15.411 2°53.458 245.2 2.3 251 13.3
2008-02-19 10:48:25 51°15.409 2°53.41 259.1 1.6 279 13.4
2008-02-19 10:49:26 51°15.418 2°53.394 269.5 0.6 332 13.4
2008-02-19 10:50:26 51°15.429 2°53.388 266.8 0.6 343 13.4
2008-02-19 10:51:25 51°15.439 2°53.384 256.9 0.5 340 13.5
2008-02-19 10:52:26 51°15.409 2°53.313 230.7 6.6 230 13.4
2008-02-19 10:53:25 51°15.3 2°53.19 214.2 9 216 13.3
2008-02-19 10:54:25 51°15.211 2°53.083 206 4.4 195 13.5
2008-02-19 10:55:25 51°15.163 2°53.064 212.4 2.1 204 13.4
2008-02-19 10:56:25 51°15.146 2°53.027 254.5 2 268 13.3
2008-02-19 10:57:25 51°15.138 2°52.972 236.5 1.7 236 13.5
2008-02-19 10:58:25 51°15.128 2°52.96 223.5 0.3 171 13.5
2008-02-19 10:59:25 51°15.123 2°52.965 209.2 0.6 142 13.4
2008-02-19 11:00:25 51°15.118 2°52.972 218.3 0.4 150 13.5
2008-02-19 11:01:25 51°15.115 2°52.968 234.3 0.2 219 13.5
2008-02-19 11:02:25 51°15.116 2°52.958 250.2 0.7 305 13.5
2008-02-19 11:03:25 51°15.127 2°52.94 280.2 1.6 315 13.5
2008-02-19 11:04:25 51°15.154 2°52.853 280.7 6.2 289 13.5
2008-02-19 11:05:25 51°15.216 2°52.662 299.5 9.2 310 13.7
2008-02-19 11:06:26 51°15.342 2°52.476 312.2 10.9 320 14.2
2008-02-19 11:07:25 51°15.507 2°52.348 338.1 11.7 346 14.6
2008-02-19 11:08:25 51°15.712 2°52.285 343.1 13.1 349 14.9
2008-02-19 11:09:25 51°15.918 2°52.389 39.2 13.7 45 14.9
2008-02-19 11:10:26 51°16.048 2°52.705 60.2 14.1 60 14.7
2008-02-19 11:11:25 51°16.164 2°53.025 60.8 14.2 60 14.6
2008-02-19 11:12:25 51°16.285 2°53.352 60.1 14.3 60 14.4
2008-02-19 11:13:26 51°16.407 2°53.684 60.4 14.3 59 14.2
2008-02-19 11:14:25 51°16.513 2°53.972 62.3 9.5 62 14.3
2008-02-19 11:15:25 51°16.558 2°54.138 72.5 5.4 69 14.3
2008-02-19 11:16:25 51°16.591 2°54.244 65.2 3.9 60 14.2
2008-02-19 11:17:26 51°16.622 2°54.321 55.1 3 55 14.2
2008-02-19 11:18:25 51°16.65 2°54.377 48.5 2.5 51 14.2
2008-02-19 11:19:25 51°16.676 2°54.421 42 2.1 44 14.2
2008-02-19 11:20:25 51°16.698 2°54.458 35.2 1.8 49 14.2
2008-02-19 11:21:26 51°16.719 2°54.486 22 1.5 40 14.2
2008-02-19 11:22:26 51°16.737 2°54.51 4.3 1.3 37 14.3
2008-02-19 11:23:25 51°16.753 2°54.533 348.2 1.3 44 14.2
2008-02-19 11:24:25 51°16.768 2°54.556 337.1 1.2 47 14.2
2008-02-19 11:25:26 51°16.783 2°54.579 329.5 1.2 43 14.3
2008-02-19 11:26:25 51°16.797 2°54.602 327.5 1.2 45 14.2
2008-02-19 11:27:25 51°16.811 2°54.624 329.2 1.2 44 14.2
2008-02-19 11:28:25 51°16.824 2°54.648 327.9 1.2 51 14.1
2008-02-19 11:29:26 51°16.837 2°54.671 329 1.1 50 14.1
2008-02-19 11:30:25 51°16.849 2°54.693 329 1.2 50 14.1
2008-02-19 11:31:26 51°16.862 2°54.716 329.1 1.2 47 14.1
2008-02-19 11:32:25 51°16.875 2°54.739 330.4 1.3 45 13.9
2008-02-19 11:33:26 51°16.89 2°54.763 333.3 1.3 47 14
2008-02-19 11:34:25 51°16.905 2°54.787 336.5 1.3 47 13.8
2008-02-19 11:35:25 51°16.919 2°54.81 338.1 1.2 45 13.9
2008-02-19 11:36:25 51°16.934 2°54.833 339.1 1.3 45 13.7
2008-02-19 11:37:25 51°16.95 2°54.855 341.9 1.3 44 13.5
2008-02-19 11:38:26 51°16.966 2°54.878 341.8 1.3 42 13.7
2008-02-19 11:39:25 51°16.981 2°54.9 342 1.3 42 13.7
2008-02-19 11:40:26 51°16.997 2°54.924 341.5 1.3 45 13.7
2008-02-19 11:41:25 51°17.011 2°54.947 338.6 1.2 43 13.6
2008-02-19 11:42:25 51°17.026 2°54.97 337.6 1.2 44 13.6
2008-02-19 11:43:25 51°17.042 2°54.993 336.1 1.3 45 13.5
2008-02-19 11:44:26 51°17.057 2°55.016 337.4 1.2 44 13.5
2008-02-19 11:45:26 51°17.072 2°55.039 338.1 1.3 44 13.5
2008-02-19 11:46:25 51°17.087 2°55.062 339 1.2 45 13.5
2008-02-19 11:47:26 51°17.102 2°55.085 339.2 1.3 42 13.5
2008-02-19 11:48:26 51°17.118 2°55.109 338.1 1.3 44 13.4
2008-02-19 11:49:25 51°17.132 2°55.132 336.5 1.3 46 13.4
2008-02-19 11:50:25 51°17.146 2°55.154 336.7 1.3 44 13.4
2008-02-19 11:51:26 51°17.163 2°55.177 339.6 1.3 36 13.4
2008-02-19 11:52:26 51°17.189 2°55.198 352.7 2.2 24 13.3
2008-02-19 11:53:26 51°17.23 2°55.234 25.1 3.3 35 13.2
2008-02-19 11:54:26 51°17.271 2°55.304 63.9 3.8 60 13.2
2008-02-19 11:55:26 51°17.28 2°55.404 124.7 3.7 104 13.2
2008-02-19 11:56:26 51°17.247 2°55.447 200.2 2 186 13.2
2008-02-19 11:57:26 51°17.209 2°55.416 215.5 3.1 206 13.3
2008-02-19 11:58:26 51°17.159 2°55.375 218.3 3.5 216 13.3
2008-02-19 11:59:26 51°17.103 2°55.306 219.1 5.1 217 13.4
2008-02-19 12:00:26 51°17.032 2°55.217 215.1 5.5 212 13.5
2008-02-19 12:01:26 51°16.97 2°55.15 226.8 3.1 224 13.5
2008-02-19 12:02:26 51°16.949 2°55.104 230.6 1.7 236 13.4
2008-02-19 12:03:26 51°16.928 2°55.078 217.6 1.6 214 13.4
2008-02-19 12:04:26 51°16.906 2°55.048 234.5 1.8 232 13.5
2008-02-19 12:05:26 51°16.892 2°55.025 219 0.6 200 13.4
2008-02-19 12:06:26 51°16.884 2°55.027 209.1 0.5 143 13.5
2008-02-19 12:07:26 51°16.88 2°55.036 206.3 0.4 118 13.5
2008-02-19 12:08:26 51°16.878 2°55.047 204.6 0.5 109 13.5
2008-02-19 12:09:26 51°16.868 2°55.051 206 1.5 186 13.6
2008-02-19 12:10:26 51°16.833 2°55.01 237.4 3.3 243 13.5
2008-02-19 12:11:26 51°16.825 2°54.924 236.4 2.8 231 13.4
2008-02-19 12:12:26 51°16.782 2°54.862 231.3 3.9 232 13.7
2008-02-19 12:13:26 51°16.75 2°54.806 220.9 2.2 218 14.1
2008-02-19 12:14:26 51°16.73 2°54.791 214.9 0.4 183 14.1
2008-02-19 12:15:25 51°16.727 2°54.789 222.7 0.2 239 14.1
2008-02-19 12:16:26 51°16.724 2°54.79 217.3 0.2 152 14.1
2008-02-19 12:17:26 51°16.722 2°54.793 212.8 0.3 137 14.2
2008-02-19 12:18:26 51°16.703 2°54.776 221.9 3.1 223 14.2
2008-02-19 12:19:26 51°16.652 2°54.684 227.8 5.7 228 14.2
2008-02-19 12:20:26 51°16.567 2°54.527 229.2 8.6 231 13.9
2008-02-19 12:21:26 51°16.478 2°54.339 231.7 9 231 13.9
2008-02-19 12:22:25 51°16.395 2°54.16 232.7 7 234 14
2008-02-19 12:23:26 51°16.337 2°54.038 231.8 5 236 14
2008-02-19 12:24:26 51°16.289 2°53.938 231.7 4.6 234 14.1
2008-02-19 12:25:26 51°16.251 2°53.861 230.5 2.7 232 14.1
2008-02-19 12:26:26 51°16.236 2°53.822 241.9 0.8 259 14.1
2008-02-19 12:27:26 51°16.244 2°53.813 271 0.7 344 14
2008-02-19 12:28:26 51°16.256 2°53.808 271.9 0.6 343 14.1
2008-02-19 12:29:26 51°16.265 2°53.801 253.4 0.4 312 14
2008-02-19 12:30:26 51°16.265 2°53.795 219.9 0.2 220 14
2008-02-19 12:31:26 51°16.258 2°53.802 190.7 0.5 140 14
2008-02-19 12:32:26 51°16.249 2°53.819 185 0.9 131 14.1
2008-02-19 12:33:26 51°16.238 2°53.834 187.7 0.8 146 14
2008-02-19 12:34:26 51°16.228 2°53.843 202.2 0.6 167 14
2008-02-19 12:35:26 51°16.219 2°53.843 214.6 0.5 207 14
2008-02-19 12:36:26 51°16.209 2°53.839 211 0.6 193 14
2008-02-19 12:37:26 51°16.198 2°53.837 206.7 0.5 193 13.9
2008-02-19 12:38:26 51°16.191 2°53.838 209.5 0.4 171 14
2008-02-19 12:39:26 51°16.18 2°53.829 217.2 1.9 216 13.9
2008-02-19 12:40:26 51°16.128 2°53.747 226.1 4.9 229 13.9
2008-02-19 12:41:26 51°16.084 2°53.652 239.1 3.9 249 13.9
2008-02-19 12:42:26 51°16.063 2°53.495 247.4 9.3 250 13.9
2008-02-19 12:43:26 51°15.989 2°53.229 238.7 11.4 243 14
2008-02-19 12:44:26 51°15.871 2°52.998 224.2 11.4 224 14
2008-02-19 12:45:26 51°15.731 2°52.788 221.6 11.6 223 14
2008-02-19 12:46:26 51°15.592 2°52.577 222.8 11.6 225 14
2008-02-19 12:47:26 51°15.451 2°52.368 220.4 11.6 223 14
2008-02-19 12:48:26 51°15.31 2°52.157 221.7 11.6 224 14
2008-02-19 12:49:26 51°15.169 2°51.944 223 11.7 225 13.9
2008-02-19 12:50:26 51°15.057 2°51.733 245.5 8.5 255 14
2008-02-19 12:51:26 51°15.019 2°51.541 233.4 6.1 235 14
2008-02-19 12:52:26 51°14.994 2°51.442 253.3 2.8 263 14.1
2008-02-19 12:53:26 51°15.002 2°51.419 290.9 0.6 349 14.1
2008-02-19 12:54:26 51°15.012 2°51.418 307.1 0.7 357 14.2
2008-02-19 12:55:26 51°15.025 2°51.419 322.2 0.8 10 14.2
2008-02-19 12:56:26 51°15.037 2°51.422 334.2 0.8 15 14.2
2008-02-19 12:57:26 51°15.047 2°51.427 344.5 0.4 34 14.3
2008-02-19 12:58:26 51°15.048 2°51.434 340 0.4 122 14.2
2008-02-19 12:59:26 51°15.047 2°51.443 325.2 0.9 348 14.2
2008-02-19 13:00:26 51°15.141 2°51.47 19.3 9.4 20 14.5
2008-02-19 13:01:26 51°15.311 2°51.576 21.2 11.5 22 14.4
2008-02-19 13:02:26 51°15.484 2°51.713 31.1 11.7 32 14.5
2008-02-19 13:03:26 51°15.65 2°51.88 31.8 11.8 32 14.5
2008-02-19 13:04:26 51°15.816 2°52.048 31 11.7 32 14.5
2008-02-19 13:05:26 51°15.966 2°52.238 49.5 11.5 48 14.3
2008-02-19 13:06:26 51°16.09 2°52.474 50.8 11.7 50 14.3
2008-02-19 13:07:26 51°16.224 2°52.701 46.8 11.8 46 14.1
2008-02-19 13:08:26 51°16.361 2°52.926 47 11.8 47 14
2008-02-19 13:09:26 51°16.498 2°53.151 47 11.9 45 13.8
2008-02-19 13:10:26 51°16.637 2°53.376 46.1 11.6 45 13.5
2008-02-19 13:11:26 51°16.743 2°53.461 350.6 5.1 356 13.6
2008-02-19 13:12:26 51°16.791 2°53.41 279.5 2.7 296 13.4
2008-02-19 13:13:26 51°16.787 2°53.339 240.7 3.2 245 13.3
2008-02-19 13:14:26 51°16.76 2°53.258 239.3 3 246 13.5
2008-02-19 13:15:25 51°16.74 2°53.195 235.1 2.5 239 13.6
2008-02-19 13:16:26 51°16.717 2°53.148 226.7 2.1 229 13.5
2008-02-19 13:17:25 51°16.696 2°53.107 224.9 2 231 13.6
2008-02-19 13:18:26 51°16.683 2°53.078 235.1 1 245 13.5
2008-02-19 13:19:26 51°16.678 2°53.061 224.4 0.3 252 13.6
2008-02-19 13:20:26 51°16.677 2°53.057 216.2 0.1 250 13.6
2008-02-19 13:21:26 51°16.677 2°53.058 207.9 0.1 105 13.5
2008-02-19 13:22:25 51°16.676 2°53.061 201.8 0.1 163 13.5
2008-02-19 13:23:26 51°16.674 2°53.065 191.5 0.2 130 13.5
2008-02-19 13:24:26 51°16.665 2°53.065 207.4 0.7 202 13.6
2008-02-19 13:25:26 51°16.648 2°53.049 216.2 2.2 215 13.6
2008-02-19 13:26:25 51°16.617 2°52.953 247.9 5.3 247 13.4
2008-02-19 13:27:25 51°16.568 2°52.852 230.5 4.2 233 13.6
2008-02-19 13:28:26 51°16.549 2°52.76 249.3 3.1 248 13.8
2008-02-19 13:29:26 51°16.518 2°52.711 214.1 2.1 206 13.7
2008-02-19 13:30:26 51°16.505 2°52.698 219.8 0.4 216 13.8
2008-02-19 13:31:26 51°16.501 2°52.69 214.1 0.3 227 13.7
2008-02-19 13:32:26 51°16.499 2°52.686 209.7 0.1 254 13.8
2008-02-19 13:33:25 51°16.498 2°52.683 209.2 0.2 255 13.7
2008-02-19 13:34:26 51°16.497 2°52.68 208.3 0.1 226 13.7
2008-02-19 13:35:26 51°16.497 2°52.677 207.2 0.4 211 13.6
2008-02-19 13:36:26 51°16.485 2°52.658 227.6 1.5 229 13.7
2008-02-19 13:37:26 51°16.464 2°52.621 219.6 1.7 225 13.8
2008-02-19 13:38:25 51°16.459 2°52.608 232.9 0.3 270 13.7
2008-02-19 13:39:26 51°16.462 2°52.597 231.8 0.4 298 13.7
2008-02-19 13:40:26 51°16.464 2°52.588 224.6 0.3 305 13.8
2008-02-19 13:41:26 51°16.468 2°52.583 217.3 0.3 326 13.6
2008-02-19 13:42:26 51°16.47 2°52.58 210.6 0.1 323 13.6
2008-02-19 13:43:26 51°16.47 2°52.576 210.8 0.2 256 13.6
2008-02-19 13:44:25 51°16.468 2°52.57 210.1 0.3 232 13.6
2008-02-19 13:45:26 51°16.462 2°52.56 211.9 1.1 218 13.5
2008-02-19 13:46:26 51°16.436 2°52.508 229.1 3.5 231 13.7
2008-02-19 13:47:26 51°16.377 2°52.443 208.4 4.9 214 13.7
2008-02-19 13:48:26 51°16.329 2°52.335 239.1 4.9 242 13.7
2008-02-19 13:49:25 51°16.295 2°52.275 213.1 1.7 217 13.8
2008-02-19 13:50:26 51°16.293 2°52.267 229.4 0.3 283 13.8
2008-02-19 13:51:26 51°16.293 2°52.26 222 0.2 217 13.8
2008-02-19 13:52:26 51°16.292 2°52.251 213.9 0.4 251 13.8
2008-02-19 13:53:26 51°16.289 2°52.241 210.9 0.5 246 13.8
2008-02-19 13:54:26 51°16.285 2°52.23 207.6 0.5 244 13.8
2008-02-19 13:55:26 51°16.275 2°52.215 208.7 1.9 219 13.9
2008-02-19 13:56:26 51°16.27 2°52.136 282.9 4.1 297 13.8
2008-02-19 13:57:26 51°16.337 2°52.096 4.1 4.9 8 13.7
2008-02-19 13:58:26 51°16.464 2°52.131 9.5 9.5 10 13
2008-02-19 13:59:26 51°16.636 2°52.189 14.5 11.1 15 12
2008-02-19 14:00:26 51°16.815 2°52.266 16.2 11.2 17 11.4
2008-02-19 14:01:26 51°16.994 2°52.348 16.5 11.1 15 11.3
2008-02-19 14:02:26 51°17.17 2°52.426 16.1 10.9 15 11.3
2008-02-19 14:03:26 51°17.339 2°52.523 29.4 10.8 30 11.6
2008-02-19 14:04:26 51°17.48 2°52.695 40.8 9.7 39 11.6
2008-02-19 14:05:26 51°17.559 2°52.815 57.2 4.6 53 11.6
2008-02-19 14:06:26 51°17.586 2°52.852 28.9 0.7 5 11.7
2008-02-19 14:07:25 51°17.593 2°52.846 349.2 1 342 11.7
2008-02-19 14:08:26 51°17.613 2°52.825 304.7 1.1 325 11.6
2008-02-19 14:09:26 51°17.619 2°52.824 291.7 0.3 325 11.7
2008-02-19 14:10:26 51°17.624 2°52.817 290.2 0.5 326 11.6
2008-02-19 14:11:26 51°17.631 2°52.806 294.5 0.7 308 11.5
2008-02-19 14:12:26 51°17.638 2°52.792 302.4 0.7 316 11.7
2008-02-19 14:13:26 51°17.647 2°52.777 313.2 0.8 323 11.7
2008-02-19 14:14:26 51°17.657 2°52.764 324.3 0.7 323 11.8
2008-02-19 14:15:26 51°17.671 2°52.747 327.2 1.9 324 11.6
2008-02-19 14:16:26 51°17.692 2°52.679 266.7 3.6 276 11.7
2008-02-19 14:17:26 51°17.691 2°52.558 270.6 5.6 284 11.7
2008-02-19 14:18:26 51°17.775 2°52.473 356.4 6.8 -999 11.7
2008-02-19 14:19:26 51°17.935 2°52.471 359.6 11.5 -999 11.7
2008-02-19 14:20:26 51°18.144 2°52.473 2.4 13 5 11.8
2008-02-19 14:21:26 51°18.358 2°52.514 9.7 12.2 14 12.1
2008-02-19 14:22:26 51°18.459 2°52.623 56.2 4.9 51 12.4
2008-02-19 14:23:26 51°18.505 2°52.691 37.6 3.5 28 12.6
2008-02-19 14:24:26 51°18.564 2°52.728 25.3 4 20 12.7
2008-02-19 14:25:25 51°18.625 2°52.763 27.5 4 21 12.7
2008-02-19 14:26:26 51°18.672 2°52.788 34 0.9 343 12.9
2008-02-19 14:27:27 51°18.676 2°52.772 23.3 0.5 298 12.7
2008-02-19 14:28:28 51°18.68 2°52.756 6.9 0.6 289 12.7
2008-02-19 14:29:27 51°18.682 2°52.742 349.4 0.6 286 12.8
2008-02-19 14:30:26 51°18.685 2°52.727 335 0.6 289 12.7
2008-02-19 14:31:26 51°18.691 2°52.708 324.6 1.6 313 12.7
2008-02-19 14:32:26 51°18.718 2°52.632 274.2 4.3 272 12.9
2008-02-19 14:33:26 51°18.672 2°52.508 228 8.2 230 12.8
2008-02-19 14:34:26 51°18.573 2°52.307 229.4 10.1 230 12.6
2008-02-19 14:35:26 51°18.469 2°52.091 228.5 10.4 234 12.5
2008-02-19 14:36:26 51°18.363 2°51.874 228.6 10.4 233 12.6
2008-02-19 14:37:26 51°18.257 2°51.656 229.3 10.4 232 12.5
2008-02-19 14:38:26 51°18.146 2°51.449 223.1 10 223 12.6
2008-02-19 14:39:26 51°18.001 2°51.326 209.3 9.9 214 12
2008-02-19 14:40:26 51°17.915 2°51.202 219.8 5.2 227 11.9
2008-02-19 14:41:26 51°17.866 2°51.14 204.8 2.8 213 11.9
2008-02-19 14:42:26 51°17.852 2°51.119 188.1 0.4 292 11.8
2008-02-19 14:43:26 51°17.855 2°51.105 182 0.5 285 11.9
2008-02-19 14:44:26 51°17.857 2°51.088 181.6 0.7 281 12
2008-02-19 14:45:26 51°17.859 2°51.071 180.8 0.6 271 12.1
2008-02-19 14:46:26 51°17.843 2°51.057 179.9 2.5 184 12.2
2008-02-19 14:47:26 51°17.772 2°51.111 147.9 7.6 148 11.4
2008-02-19 14:48:26 51°17.622 2°51.254 147.1 11.3 149 10.3
2008-02-19 14:49:26 51°17.453 2°51.416 148 11.9 148 10.9
2008-02-19 14:50:26 51°17.281 2°51.579 146.7 12.1 151 11.1
2008-02-19 14:51:26 51°17.108 2°51.739 147.2 12.1 149 11.1
2008-02-19 14:52:26 51°16.936 2°51.901 147.8 11.9 149 10.7
2008-02-19 14:53:25 51°16.767 2°52.058 148.8 12 148 10.9
2008-02-19 14:54:26 51°16.593 2°52.222 145.5 12.1 149 11.1
2008-02-19 14:55:25 51°16.433 2°52.401 142.2 11.9 145 12.4
2008-02-19 14:56:26 51°16.266 2°52.589 142.9 11.8 147 12.5
2008-02-19 14:57:26 51°16.106 2°52.78 141 12.1 144 12.3
2008-02-19 14:58:26 51°15.945 2°52.969 142.5 12.1 142 12.2
2008-02-19 14:59:26 51°15.783 2°53.156 141.3 12.1 145 11.8
2008-02-19 15:00:25 51°15.622 2°53.339 142.4 12.1 145 11.6
2008-02-19 15:01:26 51°15.456 2°53.53 140.1 12 145 10.8
2008-02-19 15:02:25 51°15.293 2°53.687 148 10.8 152 10.3
2008-02-19 15:03:26 51°15.134 2°53.826 147.9 10.2 153 9.9
2008-02-19 15:04:25 51°15.009 2°53.913 154.5 7.4 159 10
2008-02-19 15:05:26 51°14.896 2°53.978 157.4 6.9 161 10.1
2008-02-19 15:06:26 51°14.787 2°54.03 156.8 6 163 10.2
2008-02-19 15:07:25 51°14.711 2°54.063 155.6 4.2 168 10.8
2008-02-19 15:08:26 51°14.651 2°54.08 154.5 3 172 11.4
2008-02-19 15:09:25 51°14.613 2°54.088 147 2 176 11.6
2008-02-19 15:10:26 51°14.585 2°54.085 147.9 1.5 191 11.6
2008-02-19 15:11:26 51°14.563 2°54.074 151.6 1.9 182 11.6
2008-02-19 15:12:26 51°14.531 2°54.114 107 2.7 117 11.3
2008-02-19 15:13:26 51°14.523 2°54.157 85.8 0.7 107 11.2
2008-02-19 15:14:26 51°14.521 2°54.161 68.6 -999 270 11.4
2008-02-19 15:15:26 51°14.529 2°54.179 77.1 1.3 77 11.3
2008-02-19 15:16:25 51°14.529 2°54.172 89 0.7 266 11.3
2008-02-19 15:17:26 51°14.525 2°54.15 87.8 0.9 254 11.2
2008-02-19 15:18:25 51°14.521 2°54.126 87.8 1 260 11.1
2008-02-19 15:19:26 51°14.514 2°54.098 90.3 1.2 253 10.7
2008-02-19 15:20:26 51°14.508 2°54.065 97.9 1.4 252 10.4
2008-02-19 15:21:26 51°14.501 2°54.029 112.6 1.4 253 10.4
2008-02-19 15:22:26 51°14.491 2°53.998 124.4 1.2 221 10.2
2008-02-19 15:23:25 51°14.475 2°53.994 105 1.1 154 10.2
2008-02-19 15:24:26 51°14.461 2°54.056 95.3 5.6 99 10.1
2008-02-19 15:25:25 51°14.441 2°54.266 94.5 9.7 98 9.8
2008-02-19 15:26:26 51°14.41 2°54.556 96.7 11.6 99 10.3
2008-02-19 15:27:26 51°14.382 2°54.861 98.8 11.7 101 9.9
2008-02-19 15:28:26 51°14.307 2°55.152 117 12 120 10.3
2008-02-19 15:29:26 51°14.184 2°55.354 143.8 8.5 147 11.2
2008-02-19 15:30:26 51°14.085 2°55.437 148 5.3 149 9.6
2008-02-19 15:31:26 51°14.025 2°55.488 152.2 3.6 153 11.4
2008-02-19 15:32:25 51°13.966 2°55.533 153 4.6 152 11.4
2008-02-19 15:33:26 51°13.89 2°55.591 153.7 5.3 157 10.5
2008-02-19 15:34:25 51°13.812 2°55.651 152.4 5 153 10.8
2008-02-19 15:35:26 51°13.743 2°55.727 138.5 5.4 139 11.2
2008-02-19 15:36:25 51°13.688 2°55.833 118.2 4.8 118 9.5
2008-02-19 15:37:27 51°13.67 2°55.924 101.5 2.4 102 6.9